sensor_id;sensor_type;location;lat;lon;timestamp;P1;durP1;ratioP1;P2;durP2;ratioP2
55728;SDS011;41633;39.720;2.910;2022-12-08T00:00:24;14.65;;;8.35;;
55728;SDS011;41633;39.720;2.910;2022-12-08T00:02:50;17.02;;;7.93;;
55728;SDS011;41633;39.720;2.910;2022-12-08T00:05:16;14.73;;;7.20;;
55728;SDS011;41633;39.720;2.910;2022-12-08T00:08:00;18.25;;;7.28;;
55728;SDS011;41633;39.720;2.910;2022-12-08T00:10:45;15.93;;;7.60;;
55728;SDS011;41633;39.720;2.910;2022-12-08T00:13:11;14.60;;;7.25;;
55728;SDS011;41633;39.720;2.910;2022-12-08T00:15:38;16.42;;;7.35;;
55728;SDS011;41633;39.720;2.910;2022-12-08T00:18:04;14.50;;;8.55;;
55728;SDS011;41633;39.720;2.910;2022-12-08T00:20:30;15.85;;;8.18;;
55728;SDS011;41633;39.720;2.910;2022-12-08T00:22:56;15.40;;;8.77;;
55728;SDS011;41633;39.720;2.910;2022-12-08T00:25:22;17.40;;;9.15;;
55728;SDS011;41633;39.720;2.910;2022-12-08T00:27:48;19.50;;;8.35;;
55728;SDS011;41633;39.720;2.910;2022-12-08T00:30:15;14.60;;;7.82;;
55728;SDS011;41633;39.720;2.910;2022-12-08T00:32:41;14.90;;;8.13;;
55728;SDS011;41633;39.720;2.910;2022-12-08T00:35:07;14.50;;;7.03;;
55728;SDS011;41633;39.720;2.910;2022-12-08T00:37:33;16.08;;;7.03;;
55728;SDS011;41633;39.720;2.910;2022-12-08T00:39:59;14.63;;;7.18;;
55728;SDS011;41633;39.720;2.910;2022-12-08T00:42:25;13.30;;;6.20;;
55728;SDS011;41633;39.720;2.910;2022-12-08T00:44:51;12.13;;;6.45;;
55728;SDS011;41633;39.720;2.910;2022-12-08T00:47:18;15.57;;;5.95;;
55728;SDS011;41633;39.720;2.910;2022-12-08T00:49:44;13.18;;;5.93;;
55728;SDS011;41633;39.720;2.910;2022-12-08T00:52:10;13.40;;;6.13;;
55728;SDS011;41633;39.720;2.910;2022-12-08T00:57:03;14.68;;;6.35;;
55728;SDS011;41633;39.720;2.910;2022-12-08T00:59:29;11.65;;;5.47;;
55728;SDS011;41633;39.720;2.910;2022-12-08T01:01:55;12.32;;;6.43;;
55728;SDS011;41633;39.720;2.910;2022-12-08T01:04:21;13.07;;;5.90;;
55728;SDS011;41633;39.720;2.910;2022-12-08T01:06:48;14.85;;;5.93;;
55728;SDS011;41633;39.720;2.910;2022-12-08T01:11:40;12.48;;;5.25;;
55728;SDS011;41633;39.720;2.910;2022-12-08T01:16:33;12.63;;;4.85;;
55728;SDS011;41633;39.720;2.910;2022-12-08T01:19:00;15.43;;;4.95;;
55728;SDS011;41633;39.720;2.910;2022-12-08T01:21:27;14.93;;;4.63;;
55728;SDS011;41633;39.720;2.910;2022-12-08T01:23:53;11.88;;;4.65;;
55728;SDS011;41633;39.720;2.910;2022-12-08T01:26:19;12.15;;;5.22;;
55728;SDS011;41633;39.720;2.910;2022-12-08T01:28:46;12.30;;;4.88;;
55728;SDS011;41633;39.720;2.910;2022-12-08T01:31:17;12.82;;;4.82;;
55728;SDS011;41633;39.720;2.910;2022-12-08T01:33:44;11.68;;;5.05;;
55728;SDS011;41633;39.720;2.910;2022-12-08T01:36:20;11.38;;;4.70;;
55728;SDS011;41633;39.720;2.910;2022-12-08T01:38:47;14.27;;;5.45;;
55728;SDS011;41633;39.720;2.910;2022-12-08T01:41:15;14.85;;;6.13;;
55728;SDS011;41633;39.720;2.910;2022-12-08T01:43:43;13.18;;;5.32;;
55728;SDS011;41633;39.720;2.910;2022-12-08T01:46:10;15.70;;;6.80;;
55728;SDS011;41633;39.720;2.910;2022-12-08T01:48:36;15.93;;;7.15;;
55728;SDS011;41633;39.720;2.910;2022-12-08T01:51:02;13.70;;;6.40;;
55728;SDS011;41633;39.720;2.910;2022-12-08T01:53:29;14.90;;;6.85;;
55728;SDS011;41633;39.720;2.910;2022-12-08T01:56:01;14.50;;;6.10;;
55728;SDS011;41633;39.720;2.910;2022-12-08T01:58:33;14.70;;;6.15;;
55728;SDS011;41633;39.720;2.910;2022-12-08T02:01:00;13.93;;;6.47;;
55728;SDS011;41633;39.720;2.910;2022-12-08T02:03:33;15.05;;;6.20;;
55728;SDS011;41633;39.720;2.910;2022-12-08T02:06:01;12.65;;;6.22;;
55728;SDS011;41633;39.720;2.910;2022-12-08T02:08:28;12.88;;;5.70;;
55728;SDS011;41633;39.720;2.910;2022-12-08T02:10:55;14.35;;;5.95;;
55728;SDS011;41633;39.720;2.910;2022-12-08T02:13:22;12.93;;;6.00;;
55728;SDS011;41633;39.720;2.910;2022-12-08T02:16:06;13.63;;;6.22;;
55728;SDS011;41633;39.720;2.910;2022-12-08T02:23:36;12.23;;;4.68;;
55728;SDS011;41633;39.720;2.910;2022-12-08T02:36:45;13.82;;;4.35;;
55728;SDS011;41633;39.720;2.910;2022-12-08T02:42:01;12.98;;;5.20;;
55728;SDS011;41633;39.720;2.910;2022-12-08T02:47:19;11.13;;;5.15;;
55728;SDS011;41633;39.720;2.910;2022-12-08T02:49:47;11.13;;;4.60;;
55728;SDS011;41633;39.720;2.910;2022-12-08T02:54:43;11.85;;;5.30;;
55728;SDS011;41633;39.720;2.910;2022-12-08T02:57:33;12.27;;;4.60;;
55728;SDS011;41633;39.720;2.910;2022-12-08T03:00:05;9.45;;;3.85;;
55728;SDS011;41633;39.720;2.910;2022-12-08T03:13:07;9.73;;;3.90;;
55728;SDS011;41633;39.720;2.910;2022-12-08T03:15:34;9.82;;;3.53;;
55728;SDS011;41633;39.720;2.910;2022-12-08T03:18:01;7.30;;;2.75;;
55728;SDS011;41633;39.720;2.910;2022-12-08T03:20:29;7.93;;;3.05;;
55728;SDS011;41633;39.720;2.910;2022-12-08T03:22:56;8.57;;;2.70;;
55728;SDS011;41633;39.720;2.910;2022-12-08T03:25:26;10.05;;;2.95;;
55728;SDS011;41633;39.720;2.910;2022-12-08T03:27:52;9.25;;;2.72;;
55728;SDS011;41633;39.720;2.910;2022-12-08T03:30:18;8.52;;;2.65;;
55728;SDS011;41633;39.720;2.910;2022-12-08T03:32:52;10.35;;;2.78;;
55728;SDS011;41633;39.720;2.910;2022-12-08T03:35:21;9.15;;;2.85;;
55728;SDS011;41633;39.720;2.910;2022-12-08T03:37:48;9.05;;;2.70;;
55728;SDS011;41633;39.720;2.910;2022-12-08T03:40:16;10.15;;;2.90;;
55728;SDS011;41633;39.720;2.910;2022-12-08T03:42:42;9.32;;;2.92;;
55728;SDS011;41633;39.720;2.910;2022-12-08T03:45:08;9.65;;;2.95;;
55728;SDS011;41633;39.720;2.910;2022-12-08T03:50:01;8.48;;;2.55;;
55728;SDS011;41633;39.720;2.910;2022-12-08T03:52:27;9.68;;;2.38;;
55728;SDS011;41633;39.720;2.910;2022-12-08T03:54:53;9.52;;;2.35;;
55728;SDS011;41633;39.720;2.910;2022-12-08T03:57:19;9.68;;;2.45;;
55728;SDS011;41633;39.720;2.910;2022-12-08T03:59:45;10.35;;;2.55;;
55728;SDS011;41633;39.720;2.910;2022-12-08T04:02:12;8.52;;;2.50;;
55728;SDS011;41633;39.720;2.910;2022-12-08T04:04:38;7.90;;;2.30;;
55728;SDS011;41633;39.720;2.910;2022-12-08T04:07:04;8.30;;;2.42;;
55728;SDS011;41633;39.720;2.910;2022-12-08T04:11:59;10.75;;;4.65;;
55728;SDS011;41633;39.720;2.910;2022-12-08T04:14:25;14.73;;;4.50;;
55728;SDS011;41633;39.720;2.910;2022-12-08T04:16:51;11.15;;;4.28;;
55728;SDS011;41633;39.720;2.910;2022-12-08T04:19:17;13.75;;;5.10;;
55728;SDS011;41633;39.720;2.910;2022-12-08T04:21:43;11.55;;;4.38;;
55728;SDS011;41633;39.720;2.910;2022-12-08T04:24:09;11.73;;;4.93;;
55728;SDS011;41633;39.720;2.910;2022-12-08T04:26:36;13.63;;;4.93;;
55728;SDS011;41633;39.720;2.910;2022-12-08T04:29:02;12.70;;;5.53;;
55728;SDS011;41633;39.720;2.910;2022-12-08T04:31:28;13.35;;;5.63;;
55728;SDS011;41633;39.720;2.910;2022-12-08T04:33:54;13.77;;;6.13;;
55728;SDS011;41633;39.720;2.910;2022-12-08T04:38:46;13.73;;;6.10;;
55728;SDS011;41633;39.720;2.910;2022-12-08T04:41:12;13.98;;;5.65;;
55728;SDS011;41633;39.720;2.910;2022-12-08T04:43:38;14.85;;;6.70;;
55728;SDS011;41633;39.720;2.910;2022-12-08T04:46:06;13.48;;;6.53;;
55728;SDS011;41633;39.720;2.910;2022-12-08T04:48:33;11.38;;;5.80;;
55728;SDS011;41633;39.720;2.910;2022-12-08T04:50:59;13.20;;;5.20;;
55728;SDS011;41633;39.720;2.910;2022-12-08T04:53:25;10.35;;;4.78;;
55728;SDS011;41633;39.720;2.910;2022-12-08T04:55:51;12.80;;;5.03;;
55728;SDS011;41633;39.720;2.910;2022-12-08T04:58:18;11.95;;;5.30;;
55728;SDS011;41633;39.720;2.910;2022-12-08T05:00:45;11.52;;;4.45;;
55728;SDS011;41633;39.720;2.910;2022-12-08T05:03:11;14.20;;;4.15;;
55728;SDS011;41633;39.720;2.910;2022-12-08T05:05:37;10.55;;;4.40;;
55728;SDS011;41633;39.720;2.910;2022-12-08T05:08:04;12.07;;;4.53;;
55728;SDS011;41633;39.720;2.910;2022-12-08T05:12:57;9.27;;;3.92;;
55728;SDS011;41633;39.720;2.910;2022-12-08T05:15:23;10.45;;;3.80;;
55728;SDS011;41633;39.720;2.910;2022-12-08T05:17:49;12.98;;;4.00;;
55728;SDS011;41633;39.720;2.910;2022-12-08T05:20:15;11.32;;;3.95;;
55728;SDS011;41633;39.720;2.910;2022-12-08T05:22:42;10.00;;;3.92;;
55728;SDS011;41633;39.720;2.910;2022-12-08T05:25:08;13.73;;;3.90;;
55728;SDS011;41633;39.720;2.910;2022-12-08T05:27:34;9.18;;;3.40;;
55728;SDS011;41633;39.720;2.910;2022-12-08T05:32:26;9.93;;;3.28;;
55728;SDS011;41633;39.720;2.910;2022-12-08T05:34:52;11.02;;;3.83;;
55728;SDS011;41633;39.720;2.910;2022-12-08T05:37:18;12.30;;;4.30;;
55728;SDS011;41633;39.720;2.910;2022-12-08T05:39:45;10.13;;;3.65;;
55728;SDS011;41633;39.720;2.910;2022-12-08T05:42:11;9.65;;;3.72;;
55728;SDS011;41633;39.720;2.910;2022-12-08T05:44:37;8.48;;;3.55;;
55728;SDS011;41633;39.720;2.910;2022-12-08T05:47:03;8.93;;;3.33;;
55728;SDS011;41633;39.720;2.910;2022-12-08T05:49:29;14.15;;;3.70;;
55728;SDS011;41633;39.720;2.910;2022-12-08T05:51:55;9.57;;;3.80;;
55728;SDS011;41633;39.720;2.910;2022-12-08T05:54:21;12.50;;;3.50;;
55728;SDS011;41633;39.720;2.910;2022-12-08T05:56:48;9.63;;;3.60;;
55728;SDS011;41633;39.720;2.910;2022-12-08T05:59:14;9.25;;;3.28;;
55728;SDS011;41633;39.720;2.910;2022-12-08T06:01:40;11.30;;;3.20;;
55728;SDS011;41633;39.720;2.910;2022-12-08T06:04:07;11.00;;;4.10;;
55728;SDS011;41633;39.720;2.910;2022-12-08T06:06:34;13.35;;;4.03;;
55728;SDS011;41633;39.720;2.910;2022-12-08T06:09:03;11.07;;;3.47;;
55728;SDS011;41633;39.720;2.910;2022-12-08T06:11:30;12.82;;;3.50;;
55728;SDS011;41633;39.720;2.910;2022-12-08T06:13:57;10.20;;;2.90;;
55728;SDS011;41633;39.720;2.910;2022-12-08T06:16:23;9.75;;;2.78;;
55728;SDS011;41633;39.720;2.910;2022-12-08T06:18:50;8.02;;;2.67;;
55728;SDS011;41633;39.720;2.910;2022-12-08T06:21:16;9.77;;;2.42;;
55728;SDS011;41633;39.720;2.910;2022-12-08T06:26:09;8.88;;;2.53;;
55728;SDS011;41633;39.720;2.910;2022-12-08T06:28:36;8.00;;;2.80;;
55728;SDS011;41633;39.720;2.910;2022-12-08T06:33:28;12.85;;;3.10;;
55728;SDS011;41633;39.720;2.910;2022-12-08T06:35:54;9.02;;;2.78;;
55728;SDS011;41633;39.720;2.910;2022-12-08T06:38:23;10.85;;;2.92;;
55728;SDS011;41633;39.720;2.910;2022-12-08T06:40:55;8.45;;;2.90;;
55728;SDS011;41633;39.720;2.910;2022-12-08T06:43:22;8.68;;;2.70;;
55728;SDS011;41633;39.720;2.910;2022-12-08T06:45:49;10.70;;;3.13;;
55728;SDS011;41633;39.720;2.910;2022-12-08T06:48:16;10.27;;;3.28;;
55728;SDS011;41633;39.720;2.910;2022-12-08T06:50:42;11.05;;;3.00;;
55728;SDS011;41633;39.720;2.910;2022-12-08T06:53:12;9.65;;;3.05;;
55728;SDS011;41633;39.720;2.910;2022-12-08T06:55:43;12.93;;;2.88;;
55728;SDS011;41633;39.720;2.910;2022-12-08T06:58:09;9.50;;;3.00;;
55728;SDS011;41633;39.720;2.910;2022-12-08T07:00:36;12.90;;;4.25;;
55728;SDS011;41633;39.720;2.910;2022-12-08T07:03:02;10.85;;;3.85;;
55728;SDS011;41633;39.720;2.910;2022-12-08T07:05:28;11.55;;;3.80;;
55728;SDS011;41633;39.720;2.910;2022-12-08T07:07:54;11.65;;;4.15;;
55728;SDS011;41633;39.720;2.910;2022-12-08T07:10:20;11.35;;;3.85;;
55728;SDS011;41633;39.720;2.910;2022-12-08T07:12:46;11.18;;;4.43;;
55728;SDS011;41633;39.720;2.910;2022-12-08T07:15:12;11.05;;;5.05;;
55728;SDS011;41633;39.720;2.910;2022-12-08T07:17:39;11.30;;;4.43;;
55728;SDS011;41633;39.720;2.910;2022-12-08T07:20:05;13.23;;;4.78;;
55728;SDS011;41633;39.720;2.910;2022-12-08T07:22:31;10.45;;;4.10;;
55728;SDS011;41633;39.720;2.910;2022-12-08T07:25:00;11.52;;;4.75;;
55728;SDS011;41633;39.720;2.910;2022-12-08T07:27:27;15.82;;;4.75;;
55728;SDS011;41633;39.720;2.910;2022-12-08T07:32:19;12.00;;;5.38;;
55728;SDS011;41633;39.720;2.910;2022-12-08T07:34:45;14.93;;;5.22;;
55728;SDS011;41633;39.720;2.910;2022-12-08T07:37:11;13.80;;;6.68;;
55728;SDS011;41633;39.720;2.910;2022-12-08T07:39:37;12.88;;;5.50;;
55728;SDS011;41633;39.720;2.910;2022-12-08T07:42:03;10.68;;;4.90;;
55728;SDS011;41633;39.720;2.910;2022-12-08T07:44:29;12.65;;;5.38;;
55728;SDS011;41633;39.720;2.910;2022-12-08T07:46:55;11.05;;;4.97;;
55728;SDS011;41633;39.720;2.910;2022-12-08T07:49:22;11.30;;;5.38;;
55728;SDS011;41633;39.720;2.910;2022-12-08T07:51:48;11.52;;;4.70;;
55728;SDS011;41633;39.720;2.910;2022-12-08T07:54:14;14.98;;;5.07;;
55728;SDS011;41633;39.720;2.910;2022-12-08T07:56:40;10.48;;;4.22;;
55728;SDS011;41633;39.720;2.910;2022-12-08T07:59:06;13.07;;;4.47;;
55728;SDS011;41633;39.720;2.910;2022-12-08T08:01:32;10.45;;;3.78;;
55728;SDS011;41633;39.720;2.910;2022-12-08T08:06:26;11.75;;;3.70;;
55728;SDS011;41633;39.720;2.910;2022-12-08T08:08:52;7.88;;;3.42;;
55728;SDS011;41633;39.720;2.910;2022-12-08T08:11:18;12.02;;;3.97;;
55728;SDS011;41633;39.720;2.910;2022-12-08T08:13:44;10.40;;;3.55;;
55728;SDS011;41633;39.720;2.910;2022-12-08T08:18:38;9.98;;;3.92;;
55728;SDS011;41633;39.720;2.910;2022-12-08T08:21:04;12.63;;;5.07;;
55728;SDS011;41633;39.720;2.910;2022-12-08T08:26:00;14.05;;;7.07;;
55728;SDS011;41633;39.720;2.910;2022-12-08T08:28:26;17.05;;;7.15;;
55728;SDS011;41633;39.720;2.910;2022-12-08T08:30:53;16.88;;;6.10;;
55728;SDS011;41633;39.720;2.910;2022-12-08T08:35:45;14.48;;;6.90;;
55728;SDS011;41633;39.720;2.910;2022-12-08T08:38:11;17.48;;;7.50;;
55728;SDS011;41633;39.720;2.910;2022-12-08T08:40:38;18.50;;;7.43;;
55728;SDS011;41633;39.720;2.910;2022-12-08T08:43:04;21.25;;;7.45;;
55728;SDS011;41633;39.720;2.910;2022-12-08T08:45:32;13.57;;;6.60;;
55728;SDS011;41633;39.720;2.910;2022-12-08T08:50:28;15.98;;;6.10;;
55728;SDS011;41633;39.720;2.910;2022-12-08T08:52:55;12.52;;;6.20;;
55728;SDS011;41633;39.720;2.910;2022-12-08T08:57:49;16.35;;;6.90;;
55728;SDS011;41633;39.720;2.910;2022-12-08T09:00:15;13.85;;;5.85;;
55728;SDS011;41633;39.720;2.910;2022-12-08T09:05:08;14.15;;;6.00;;
55728;SDS011;41633;39.720;2.910;2022-12-08T09:07:34;13.15;;;5.70;;
55728;SDS011;41633;39.720;2.910;2022-12-08T09:10:02;13.80;;;5.63;;
55728;SDS011;41633;39.720;2.910;2022-12-08T09:14:54;12.32;;;5.20;;
55728;SDS011;41633;39.720;2.910;2022-12-08T09:17:20;13.38;;;4.85;;
55728;SDS011;41633;39.720;2.910;2022-12-08T09:19:47;13.05;;;4.70;;
55728;SDS011;41633;39.720;2.910;2022-12-08T09:22:13;12.95;;;5.43;;
55728;SDS011;41633;39.720;2.910;2022-12-08T09:24:40;17.35;;;7.65;;
55728;SDS011;41633;39.720;2.910;2022-12-08T09:27:06;17.60;;;8.57;;
55728;SDS011;41633;39.720;2.910;2022-12-08T09:29:32;15.65;;;7.50;;
55728;SDS011;41633;39.720;2.910;2022-12-08T09:32:02;20.35;;;8.88;;
55728;SDS011;41633;39.720;2.910;2022-12-08T09:34:28;15.50;;;8.23;;
55728;SDS011;41633;39.720;2.910;2022-12-08T09:36:55;18.23;;;8.82;;
55728;SDS011;41633;39.720;2.910;2022-12-08T09:39:22;20.13;;;9.52;;
55728;SDS011;41633;39.720;2.910;2022-12-08T09:49:10;22.90;;;10.05;;
55728;SDS011;41633;39.720;2.910;2022-12-08T09:51:38;22.08;;;9.00;;
55728;SDS011;41633;39.720;2.910;2022-12-08T09:54:16;15.45;;;7.53;;
55728;SDS011;41633;39.720;2.910;2022-12-08T09:56:43;17.25;;;8.00;;
55728;SDS011;41633;39.720;2.910;2022-12-08T10:01:36;17.10;;;7.18;;
55728;SDS011;41633;39.720;2.910;2022-12-08T10:04:38;14.57;;;7.30;;
55728;SDS011;41633;39.720;2.910;2022-12-08T10:06:59;16.98;;;7.70;;
55728;SDS011;41633;39.720;2.910;2022-12-08T10:16:54;13.40;;;6.50;;
55728;SDS011;41633;39.720;2.910;2022-12-08T10:19:23;15.00;;;5.53;;
55728;SDS011;41633;39.720;2.910;2022-12-08T10:21:50;15.20;;;5.28;;
55728;SDS011;41633;39.720;2.910;2022-12-08T10:24:21;16.27;;;5.80;;
55728;SDS011;41633;39.720;2.910;2022-12-08T10:26:50;15.55;;;5.63;;
55728;SDS011;41633;39.720;2.910;2022-12-08T10:29:17;17.38;;;5.40;;
55728;SDS011;41633;39.720;2.910;2022-12-08T10:34:14;14.88;;;5.40;;
55728;SDS011;41633;39.720;2.910;2022-12-08T10:36:45;17.40;;;6.18;;
55728;SDS011;41633;39.720;2.910;2022-12-08T10:47:13;19.05;;;8.85;;
55728;SDS011;41633;39.720;2.910;2022-12-08T10:49:39;22.50;;;9.02;;
55728;SDS011;41633;39.720;2.910;2022-12-08T10:52:19;19.55;;;9.02;;
55728;SDS011;41633;39.720;2.910;2022-12-08T10:54:53;17.35;;;8.10;;
55728;SDS011;41633;39.720;2.910;2022-12-08T10:57:20;14.77;;;6.68;;
55728;SDS011;41633;39.720;2.910;2022-12-08T10:59:53;16.55;;;7.78;;
55728;SDS011;41633;39.720;2.910;2022-12-08T11:02:22;17.88;;;7.75;;
55728;SDS011;41633;39.720;2.910;2022-12-08T11:07:19;15.85;;;7.38;;
55728;SDS011;41633;39.720;2.910;2022-12-08T11:09:47;17.65;;;7.43;;
55728;SDS011;41633;39.720;2.910;2022-12-08T11:12:15;20.15;;;7.28;;
55728;SDS011;41633;39.720;2.910;2022-12-08T11:17:15;15.48;;;6.55;;
55728;SDS011;41633;39.720;2.910;2022-12-08T11:19:53;17.75;;;5.68;;
55728;SDS011;41633;39.720;2.910;2022-12-08T11:24:46;16.90;;;4.70;;
55728;SDS011;41633;39.720;2.910;2022-12-08T11:27:21;14.43;;;4.10;;
55728;SDS011;41633;39.720;2.910;2022-12-08T11:32:13;16.05;;;3.80;;
55728;SDS011;41633;39.720;2.910;2022-12-08T11:37:05;13.65;;;3.60;;
55728;SDS011;41633;39.720;2.910;2022-12-08T11:39:35;11.25;;;3.25;;
55728;SDS011;41633;39.720;2.910;2022-12-08T11:42:06;12.48;;;3.88;;
55728;SDS011;41633;39.720;2.910;2022-12-08T11:47:17;13.93;;;3.95;;
55728;SDS011;41633;39.720;2.910;2022-12-08T11:49:44;15.40;;;3.95;;
55728;SDS011;41633;39.720;2.910;2022-12-08T11:52:20;12.60;;;3.40;;
55728;SDS011;41633;39.720;2.910;2022-12-08T11:54:50;11.35;;;3.40;;
55728;SDS011;41633;39.720;2.910;2022-12-08T11:57:20;11.93;;;3.75;;
55728;SDS011;41633;39.720;2.910;2022-12-08T11:59:48;12.77;;;3.75;;
55728;SDS011;41633;39.720;2.910;2022-12-08T12:02:17;12.82;;;4.13;;
55728;SDS011;41633;39.720;2.910;2022-12-08T12:04:53;14.00;;;4.03;;
55728;SDS011;41633;39.720;2.910;2022-12-08T12:22:58;11.23;;;2.63;;
55728;SDS011;41633;39.720;2.910;2022-12-08T12:25:25;14.25;;;2.83;;
55728;SDS011;41633;39.720;2.910;2022-12-08T12:27:52;12.38;;;3.17;;
55728;SDS011;41633;39.720;2.910;2022-12-08T12:30:22;12.82;;;2.80;;
55728;SDS011;41633;39.720;2.910;2022-12-08T12:32:53;12.18;;;3.13;;
55728;SDS011;41633;39.720;2.910;2022-12-08T12:35:36;10.65;;;2.50;;
55728;SDS011;41633;39.720;2.910;2022-12-08T12:38:07;11.35;;;3.45;;
55728;SDS011;41633;39.720;2.910;2022-12-08T12:40:58;12.88;;;3.28;;
55728;SDS011;41633;39.720;2.910;2022-12-08T12:43:32;10.43;;;2.78;;
55728;SDS011;41633;39.720;2.910;2022-12-08T12:48:44;10.65;;;3.10;;
55728;SDS011;41633;39.720;2.910;2022-12-08T12:53:55;11.43;;;3.22;;
55728;SDS011;41633;39.720;2.910;2022-12-08T13:01:54;10.10;;;2.30;;
55728;SDS011;41633;39.720;2.910;2022-12-08T13:04:31;9.25;;;2.10;;
55728;SDS011;41633;39.720;2.910;2022-12-08T13:06:58;10.52;;;2.60;;
55728;SDS011;41633;39.720;2.910;2022-12-08T13:09:29;10.07;;;2.28;;
55728;SDS011;41633;39.720;2.910;2022-12-08T13:11:57;12.43;;;2.40;;
55728;SDS011;41633;39.720;2.910;2022-12-08T13:16:54;8.18;;;2.22;;
55728;SDS011;41633;39.720;2.910;2022-12-08T13:19:20;10.40;;;2.05;;
55728;SDS011;41633;39.720;2.910;2022-12-08T13:21:47;10.32;;;2.22;;
55728;SDS011;41633;39.720;2.910;2022-12-08T13:24:14;10.55;;;2.75;;
55728;SDS011;41633;39.720;2.910;2022-12-08T13:26:48;9.07;;;3.80;;
55728;SDS011;41633;39.720;2.910;2022-12-08T13:29:18;10.48;;;2.40;;
55728;SDS011;41633;39.720;2.910;2022-12-08T13:36:48;9.25;;;2.33;;
55728;SDS011;41633;39.720;2.910;2022-12-08T13:39:19;9.82;;;2.38;;
55728;SDS011;41633;39.720;2.910;2022-12-08T13:41:52;9.20;;;2.70;;
55728;SDS011;41633;39.720;2.910;2022-12-08T13:44:25;12.20;;;3.63;;
55728;SDS011;41633;39.720;2.910;2022-12-08T13:46:53;14.77;;;4.78;;
55728;SDS011;41633;39.720;2.910;2022-12-08T13:49:23;9.25;;;2.30;;
55728;SDS011;41633;39.720;2.910;2022-12-08T13:51:49;7.93;;;2.80;;
55728;SDS011;41633;39.720;2.910;2022-12-08T13:54:23;15.40;;;6.78;;
55728;SDS011;41633;39.720;2.910;2022-12-08T13:56:51;11.82;;;2.65;;
55728;SDS011;41633;39.720;2.910;2022-12-08T14:01:55;14.32;;;3.03;;
55728;SDS011;41633;39.720;2.910;2022-12-08T14:04:22;13.63;;;2.33;;
55728;SDS011;41633;39.720;2.910;2022-12-08T14:06:49;8.40;;;2.20;;
55728;SDS011;41633;39.720;2.910;2022-12-08T14:09:17;10.07;;;1.95;;
55728;SDS011;41633;39.720;2.910;2022-12-08T14:11:46;13.43;;;2.40;;
55728;SDS011;41633;39.720;2.910;2022-12-08T14:14:59;10.38;;;1.83;;
55728;SDS011;41633;39.720;2.910;2022-12-08T14:17:09;10.60;;;2.42;;
55728;SDS011;41633;39.720;2.910;2022-12-08T14:19:36;13.45;;;2.30;;
55728;SDS011;41633;39.720;2.910;2022-12-08T14:24:29;13.55;;;2.30;;
55728;SDS011;41633;39.720;2.910;2022-12-08T14:26:59;9.68;;;2.63;;
55728;SDS011;41633;39.720;2.910;2022-12-08T14:29:35;9.32;;;2.35;;
55728;SDS011;41633;39.720;2.910;2022-12-08T14:32:03;10.00;;;2.50;;
55728;SDS011;41633;39.720;2.910;2022-12-08T14:34:33;12.10;;;2.78;;
55728;SDS011;41633;39.720;2.910;2022-12-08T14:37:04;12.60;;;2.95;;
55728;SDS011;41633;39.720;2.910;2022-12-08T14:39:30;13.32;;;2.92;;
55728;SDS011;41633;39.720;2.910;2022-12-08T14:44:23;14.70;;;4.10;;
55728;SDS011;41633;39.720;2.910;2022-12-08T14:47:08;13.77;;;4.70;;
55728;SDS011;41633;39.720;2.910;2022-12-08T14:49:35;14.38;;;3.88;;
55728;SDS011;41633;39.720;2.910;2022-12-08T14:52:02;16.58;;;3.45;;
55728;SDS011;41633;39.720;2.910;2022-12-08T14:54:33;9.57;;;2.72;;
55728;SDS011;41633;39.720;2.910;2022-12-08T14:59:35;12.35;;;3.08;;
55728;SDS011;41633;39.720;2.910;2022-12-08T15:04:37;10.88;;;2.78;;
55728;SDS011;41633;39.720;2.910;2022-12-08T15:07:06;10.85;;;2.60;;
55728;SDS011;41633;39.720;2.910;2022-12-08T15:09:36;14.20;;;3.38;;
55728;SDS011;41633;39.720;2.910;2022-12-08T15:14:33;15.32;;;3.45;;
55728;SDS011;41633;39.720;2.910;2022-12-08T15:16:59;12.75;;;3.00;;
55728;SDS011;41633;39.720;2.910;2022-12-08T15:22:00;14.75;;;3.47;;
55728;SDS011;41633;39.720;2.910;2022-12-08T15:24:32;13.70;;;3.42;;
55728;SDS011;41633;39.720;2.910;2022-12-08T15:26:59;18.27;;;4.68;;
55728;SDS011;41633;39.720;2.910;2022-12-08T15:29:28;15.15;;;5.03;;
55728;SDS011;41633;39.720;2.910;2022-12-08T15:31:55;14.48;;;4.90;;
55728;SDS011;41633;39.720;2.910;2022-12-08T15:34:22;14.15;;;5.07;;
55728;SDS011;41633;39.720;2.910;2022-12-08T15:39:25;17.27;;;5.20;;
55728;SDS011;41633;39.720;2.910;2022-12-08T15:41:53;14.52;;;4.28;;
55728;SDS011;41633;39.720;2.910;2022-12-08T15:44:19;15.70;;;5.13;;
55728;SDS011;41633;39.720;2.910;2022-12-08T15:46:45;13.43;;;5.03;;
55728;SDS011;41633;39.720;2.910;2022-12-08T15:49:15;14.27;;;5.10;;
55728;SDS011;41633;39.720;2.910;2022-12-08T15:51:42;15.73;;;5.18;;
55728;SDS011;41633;39.720;2.910;2022-12-08T15:56:41;20.25;;;8.85;;
55728;SDS011;41633;39.720;2.910;2022-12-08T15:59:17;24.30;;;12.50;;
55728;SDS011;41633;39.720;2.910;2022-12-08T16:01:44;24.90;;;10.43;;
55728;SDS011;41633;39.720;2.910;2022-12-08T16:04:14;21.20;;;9.05;;
55728;SDS011;41633;39.720;2.910;2022-12-08T16:06:44;19.25;;;8.77;;
55728;SDS011;41633;39.720;2.910;2022-12-08T16:09:14;16.88;;;8.40;;
55728;SDS011;41633;39.720;2.910;2022-12-08T16:11:42;18.00;;;6.97;;
55728;SDS011;41633;39.720;2.910;2022-12-08T16:14:26;14.57;;;6.90;;
55728;SDS011;41633;39.720;2.910;2022-12-08T16:16:52;18.02;;;7.63;;
55728;SDS011;41633;39.720;2.910;2022-12-08T16:21:48;19.35;;;9.27;;
55728;SDS011;41633;39.720;2.910;2022-12-08T16:24:14;50.60;;;31.55;;
55728;SDS011;41633;39.720;2.910;2022-12-08T16:26:40;24.00;;;13.60;;
55728;SDS011;41633;39.720;2.910;2022-12-08T16:29:06;21.35;;;11.30;;
55728;SDS011;41633;39.720;2.910;2022-12-08T16:31:32;19.58;;;10.50;;
55728;SDS011;41633;39.720;2.910;2022-12-08T16:33:59;20.90;;;9.73;;
55728;SDS011;41633;39.720;2.910;2022-12-08T16:36:27;19.25;;;8.85;;
55728;SDS011;41633;39.720;2.910;2022-12-08T16:38:53;19.65;;;10.85;;
55728;SDS011;41633;39.720;2.910;2022-12-08T16:41:20;20.20;;;11.57;;
55728;SDS011;41633;39.720;2.910;2022-12-08T16:44:04;25.10;;;15.57;;
55728;SDS011;41633;39.720;2.910;2022-12-08T16:48:57;19.50;;;11.43;;
55728;SDS011;41633;39.720;2.910;2022-12-08T16:51:23;23.50;;;11.52;;
55728;SDS011;41633;39.720;2.910;2022-12-08T16:53:50;21.45;;;11.52;;
55728;SDS011;41633;39.720;2.910;2022-12-08T16:56:16;21.63;;;13.07;;
55728;SDS011;41633;39.720;2.910;2022-12-08T16:58:45;23.38;;;12.80;;
55728;SDS011;41633;39.720;2.910;2022-12-08T17:01:12;21.73;;;11.70;;
55728;SDS011;41633;39.720;2.910;2022-12-08T17:03:39;21.05;;;11.82;;
55728;SDS011;41633;39.720;2.910;2022-12-08T17:06:12;21.67;;;12.15;;
55728;SDS011;41633;39.720;2.910;2022-12-08T17:08:39;26.42;;;12.57;;
55728;SDS011;41633;39.720;2.910;2022-12-08T17:11:05;26.45;;;13.75;;
55728;SDS011;41633;39.720;2.910;2022-12-08T17:13:32;30.50;;;15.70;;
55728;SDS011;41633;39.720;2.910;2022-12-08T17:15:58;25.15;;;12.35;;
55728;SDS011;41633;39.720;2.910;2022-12-08T17:18:25;94.70;;;70.55;;
55728;SDS011;41633;39.720;2.910;2022-12-08T17:20:51;34.35;;;21.10;;
55728;SDS011;41633;39.720;2.910;2022-12-08T17:23:17;37.40;;;21.50;;
55728;SDS011;41633;39.720;2.910;2022-12-08T17:25:43;30.15;;;17.75;;
55728;SDS011;41633;39.720;2.910;2022-12-08T17:28:09;26.17;;;15.43;;
55728;SDS011;41633;39.720;2.910;2022-12-08T17:30:35;45.55;;;29.80;;
55728;SDS011;41633;39.720;2.910;2022-12-08T17:33:01;40.95;;;25.10;;
55728;SDS011;41633;39.720;2.910;2022-12-08T17:35:27;28.65;;;15.77;;
55728;SDS011;41633;39.720;2.910;2022-12-08T17:37:53;39.80;;;28.45;;
55728;SDS011;41633;39.720;2.910;2022-12-08T17:40:20;31.92;;;19.13;;
55728;SDS011;41633;39.720;2.910;2022-12-08T17:42:46;32.10;;;17.35;;
55728;SDS011;41633;39.720;2.910;2022-12-08T17:45:12;25.55;;;13.80;;